Time;durP1;ratioP1;P1;durP2;ratioP2;P2;SDS_P1;SDS_P2;PMS_P1;PMS_P2;Temp;Humidity;BMP_temperature;BMP_pressure;BME280_temperature;BME280_humidity;BME280_pressure;Samples;Min_cycle;Max_cycle;Signal;HPM_P1;HPM_P2
2023/09/17 00:00:09;;;;;;;27.42;15.65;;;16.10;99.90;;;;;;5112881;27;20062;-61
2023/09/17 00:02:37;;;;;;;24.65;15.63;;;16.10;99.90;;;;;;5108702;28;20891;-61
2023/09/17 00:05:06;;;;;;;25.13;15.43;;;16.00;99.90;;;;;;5109127;28;20411;-61
2023/09/17 00:07:33;;;;;;;24.20;15.60;;;16.00;99.90;;;;;;5109117;28;20050;-60
2023/09/17 00:10:01;;;;;;;19.95;14.63;;;16.00;99.90;;;;;;5107358;28;20398;-61
2023/09/17 00:12:29;;;;;;;22.27;14.73;;;16.00;99.90;;;;;;5099651;28;20051;-61
2023/09/17 00:14:59;;;;;;;23.83;15.40;;;16.00;99.90;;;;;;5089635;28;20055;-61
2023/09/17 00:17:27;;;;;;;25.73;15.88;;;16.00;99.90;;;;;;5109065;28;20070;-61
2023/09/17 00:19:55;;;;;;;24.73;14.98;;;16.00;99.90;;;;;;5126294;27;20406;-61
2023/09/17 00:22:22;;;;;;;23.80;15.15;;;16.00;99.90;;;;;;5127817;27;20425;-62
2023/09/17 00:24:50;;;;;;;24.58;15.77;;;16.00;99.90;;;;;;5128130;27;20043;-60
2023/09/17 00:27:18;;;;;;;28.80;15.50;;;16.00;99.90;;;;;;5101342;28;20048;-61
2023/09/17 00:29:46;;;;;;;29.05;15.38;;;15.90;99.90;;;;;;5099910;28;20055;-61
2023/09/17 00:32:13;;;;;;;24.80;16.48;;;15.90;99.90;;;;;;5090414;28;20376;-61
2023/09/17 00:34:41;;;;;;;25.88;16.05;;;15.90;99.90;;;;;;5125466;27;20062;-61
2023/09/17 00:37:10;;;;;;;24.00;15.52;;;15.90;99.90;;;;;;5109086;28;20036;-61
2023/09/17 00:39:40;;;;;;;26.70;16.83;;;15.90;99.90;;;;;;5122420;27;20478;-59
2023/09/17 00:42:09;;;;;;;26.98;17.08;;;15.90;99.90;;;;;;5119105;28;20434;-59
2023/09/17 00:44:37;;;;;;;29.90;17.95;;;15.90;99.90;;;;;;5123866;28;20061;-60
2023/09/17 00:47:06;;;;;;;26.70;16.42;;;15.90;99.90;;;;;;5108458;28;20074;-59
2023/09/17 00:49:34;;;;;;;27.95;16.63;;;15.90;99.90;;;;;;5121114;28;20039;-60
2023/09/17 00:52:08;;;;;;;26.90;16.38;;;15.90;99.90;;;;;;5117806;28;20044;-59
2023/09/17 00:54:36;;;;;;;23.27;16.38;;;15.90;99.90;;;;;;5125415;28;20051;-60
2023/09/17 00:57:04;;;;;;;25.35;16.90;;;15.80;99.90;;;;;;5106023;28;20043;-59
2023/09/17 00:59:32;;;;;;;26.65;15.48;;;15.90;99.90;;;;;;5107780;28;20064;-60
2023/09/17 01:02:00;;;;;;;24.40;16.20;;;15.90;99.90;;;;;;5105701;28;20058;-59
2023/09/17 01:04:28;;;;;;;24.75;14.20;;;15.80;99.90;;;;;;5104901;28;20741;-60
2023/09/17 01:06:58;;;;;;;25.65;16.42;;;15.90;99.90;;;;;;5104064;28;20047;-60
2023/09/17 01:09:27;;;;;;;24.75;16.17;;;15.80;99.90;;;;;;5106741;28;20039;-60
2023/09/17 01:11:55;;;;;;;26.90;16.50;;;15.80;99.90;;;;;;5107519;28;20051;-61
2023/09/17 01:14:23;;;;;;;20.75;15.30;;;15.80;99.90;;;;;;5102376;28;20043;-62
2023/09/17 01:16:51;;;;;;;27.15;15.73;;;15.80;99.90;;;;;;5108032;28;20077;-60
2023/09/17 01:19:29;;;;;;;29.80;16.27;;;15.80;99.90;;;;;;5106549;28;20035;-61
2023/09/17 01:22:12;;;;;;;26.10;15.23;;;15.80;99.90;;;;;;5111213;28;20062;-61
2023/09/17 01:25:05;;;;;;;26.05;16.55;;;15.80;99.90;;;;;;5130360;27;20059;-61
2023/09/17 01:27:41;;;;;;;27.63;16.67;;;15.80;99.90;;;;;;5074387;28;20051;-61
2023/09/17 01:30:15;;;;;;;29.95;15.63;;;15.80;99.90;;;;;;5114066;27;20040;-60
2023/09/17 01:32:44;;;;;;;30.40;17.05;;;15.80;99.90;;;;;;5083220;28;20387;-61
2023/09/17 01:35:15;;;;;;;29.20;16.65;;;15.80;99.90;;;;;;5094794;28;20048;-62
2023/09/17 01:37:57;;;;;;;27.50;16.30;;;15.80;99.90;;;;;;5115236;28;20044;-61
2023/09/17 01:40:25;;;;;;;23.23;15.82;;;15.80;99.90;;;;;;5135699;27;20501;-61
2023/09/17 01:42:57;;;;;;;24.55;15.80;;;15.80;99.90;;;;;;5135528;27;20043;-61
2023/09/17 01:45:26;;;;;;;24.27;15.38;;;15.80;99.90;;;;;;5130107;27;20638;-61
2023/09/17 01:47:56;;;;;;;26.38;15.65;;;15.80;99.90;;;;;;5113665;28;20047;-61
2023/09/17 01:50:25;;;;;;;27.95;15.00;;;15.80;99.90;;;;;;5115088;28;20040;-60
2023/09/17 01:52:53;;;;;;;26.23;15.25;;;15.80;99.90;;;;;;5113878;28;20047;-60
2023/09/17 01:55:22;;;;;;;28.30;14.93;;;15.80;99.90;;;;;;5113605;28;20402;-61
2023/09/17 01:57:50;;;;;;;19.27;13.15;;;15.70;99.90;;;;;;5114189;28;20039;-61
2023/09/17 02:00:18;;;;;;;26.88;15.30;;;15.70;99.90;;;;;;5113739;28;20044;-61
2023/09/17 02:02:49;;;;;;;28.73;15.57;;;15.70;99.90;;;;;;5114109;28;20494;-61
2023/09/17 02:05:17;;;;;;;23.63;14.55;;;15.70;99.90;;;;;;5096713;28;20403;-60
2023/09/17 02:07:45;;;;;;;23.05;14.98;;;15.70;99.90;;;;;;5113464;28;20059;-60
2023/09/17 02:10:13;;;;;;;24.05;14.93;;;15.70;99.90;;;;;;5114230;28;20048;-60
2023/09/17 02:12:41;;;;;;;27.10;14.23;;;15.70;99.90;;;;;;5112263;28;20048;-61
2023/09/17 02:15:09;;;;;;;24.65;15.20;;;15.70;99.90;;;;;;5112969;28;20051;-61
2023/09/17 02:17:38;;;;;;;23.83;14.25;;;15.70;99.90;;;;;;5113192;28;20454;-61
2023/09/17 02:20:10;;;;;;;26.35;15.00;;;15.70;99.90;;;;;;5113196;28;20051;-60
2023/09/17 02:22:39;;;;;;;25.83;16.17;;;15.70;99.90;;;;;;5110971;28;20387;-60
2023/09/17 02:25:09;;;;;;;29.08;14.32;;;15.70;99.90;;;;;;5095843;28;20055;-60
2023/09/17 02:27:38;;;;;;;25.45;15.85;;;15.70;99.90;;;;;;5114031;28;20044;-61
2023/09/17 02:30:08;;;;;;;26.20;15.80;;;15.70;99.90;;;;;;5114145;28;20039;-60
2023/09/17 02:32:38;;;;;;;23.10;15.57;;;15.70;99.90;;;;;;5109230;28;20040;-60
2023/09/17 02:35:07;;;;;;;26.17;15.63;;;15.60;99.90;;;;;;5113980;28;20055;-60
2023/09/17 02:37:35;;;;;;;24.55;16.00;;;15.60;99.90;;;;;;5113688;28;20047;-61
2023/09/17 02:40:08;;;;;;;26.38;15.55;;;15.70;99.90;;;;;;5113816;28;20059;-61
2023/09/17 02:42:37;;;;;;;23.92;15.35;;;15.70;99.90;;;;;;5113588;28;20051;-60
2023/09/17 02:45:08;;;;;;;25.98;16.33;;;15.70;99.90;;;;;;5112509;28;20032;-60
2023/09/17 02:47:40;;;;;;;22.65;15.38;;;15.70;99.90;;;;;;5113897;28;20399;-61
2023/09/17 02:50:09;;;;;;;31.08;17.02;;;15.60;99.90;;;;;;5113702;28;20070;-61
2023/09/17 02:52:38;;;;;;;30.77;15.87;;;15.60;99.90;;;;;;5112701;28;20603;-60
2023/09/17 02:55:08;;;;;;;22.48;16.13;;;15.60;99.90;;;;;;5112520;28;20332;-60
2023/09/17 02:57:36;;;;;;;26.08;17.40;;;15.60;99.90;;;;;;5113388;28;20036;-60
2023/09/17 03:00:10;;;;;;;26.80;16.00;;;15.60;99.90;;;;;;5112402;28;20499;-60
2023/09/17 03:02:38;;;;;;;28.15;15.90;;;15.60;99.90;;;;;;5111115;28;20047;-60
2023/09/17 03:05:10;;;;;;;30.42;17.00;;;15.60;99.90;;;;;;5091758;28;20059;-60
2023/09/17 03:07:38;;;;;;;25.75;17.17;;;15.60;99.90;;;;;;5106221;28;20039;-60
2023/09/17 03:10:11;;;;;;;25.35;16.63;;;15.60;99.90;;;;;;5112138;28;20046;-60
2023/09/17 03:12:42;;;;;;;25.65;16.27;;;15.60;99.90;;;;;;5111617;28;20040;-61
2023/09/17 03:15:10;;;;;;;32.55;16.58;;;15.60;99.90;;;;;;5111973;28;20505;-60
2023/09/17 03:17:41;;;;;;;33.88;16.08;;;15.60;99.90;;;;;;5111763;28;20039;-60
2023/09/17 03:20:13;;;;;;;27.38;16.27;;;15.60;99.90;;;;;;5113280;28;20055;-61
2023/09/17 03:22:42;;;;;;;27.75;16.85;;;15.60;99.90;;;;;;5111958;28;20062;-60
2023/09/17 03:25:12;;;;;;;30.90;17.23;;;15.60;99.90;;;;;;5111851;28;20470;-61
2023/09/17 03:27:45;;;;;;;32.97;18.65;;;15.60;99.90;;;;;;5111590;28;20040;-60
2023/09/17 03:30:13;;;;;;;27.10;17.70;;;15.60;99.90;;;;;;5111755;28;20043;-60
2023/09/17 03:32:42;;;;;;;32.80;17.13;;;15.60;99.90;;;;;;5109051;28;20403;-60
2023/09/17 03:35:32;;;;;;;27.58;17.20;;;15.60;99.90;;;;;;5125380;27;20044;-60
2023/09/17 03:38:01;;;;;;;25.13;16.37;;;15.60;99.90;;;;;;5128748;27;20044;-60
2023/09/17 03:40:29;;;;;;;27.70;16.25;;;15.60;99.90;;;;;;5111407;28;20321;-61
2023/09/17 03:42:57;;;;;;;29.80;16.42;;;15.60;99.90;;;;;;5112459;28;20044;-60
2023/09/17 03:45:25;;;;;;;30.63;16.35;;;15.60;99.90;;;;;;5111429;28;20054;-60
2023/09/17 03:47:54;;;;;;;24.70;16.10;;;15.60;99.90;;;;;;5111162;28;20052;-61
2023/09/17 03:50:22;;;;;;;24.13;14.85;;;15.60;99.90;;;;;;5112595;28;20043;-60
2023/09/17 03:52:53;;;;;;;25.70;16.15;;;15.50;99.90;;;;;;5111221;28;20048;-60
2023/09/17 03:55:23;;;;;;;23.70;15.32;;;15.60;99.90;;;;;;5111321;28;20048;-61
2023/09/17 03:57:51;;;;;;;28.38;16.08;;;15.60;99.90;;;;;;5111310;28;20514;-60
2023/09/17 04:00:23;;;;;;;;;;;15.60;99.90;;;;;;5111364;28;20398;-60
2023/09/17 04:02:52;;;;;;;24.85;16.08;;;15.60;99.90;;;;;;5094314;28;19927;-60
2023/09/17 04:05:21;;;;;;;24.08;15.82;;;15.60;99.90;;;;;;5110904;28;20040;-61
2023/09/17 04:07:49;;;;;;;24.00;15.85;;;15.50;99.90;;;;;;5111088;28;20535;-60
2023/09/17 04:10:17;;;;;;;25.55;15.55;;;15.50;99.90;;;;;;5110811;28;20066;-60
2023/09/17 04:12:46;;;;;;;33.95;16.25;;;15.50;99.90;;;;;;5110994;28;20036;-60
2023/09/17 04:15:20;;;;;;;27.17;16.30;;;15.50;99.90;;;;;;5110950;28;20044;-60
2023/09/17 04:17:50;;;;;;;28.17;16.52;;;15.50;99.90;;;;;;5110483;28;20043;-60
2023/09/17 04:20:20;;;;;;;26.85;16.08;;;15.50;99.90;;;;;;5112225;28;20406;-60
2023/09/17 04:22:50;;;;;;;24.13;16.10;;;15.50;99.90;;;;;;5111002;28;20475;-60
2023/09/17 04:25:20;;;;;;;25.02;15.52;;;15.50;99.90;;;;;;5111030;28;20044;-60
2023/09/17 04:27:51;;;;;;;25.55;16.77;;;15.50;99.90;;;;;;5107192;28;20047;-60
2023/09/17 04:30:21;;;;;;;27.27;16.48;;;15.50;99.90;;;;;;5110994;28;20035;-60
2023/09/17 04:32:51;;;;;;;28.75;15.93;;;15.50;99.90;;;;;;5112022;28;20054;-60
2023/09/17 04:35:20;;;;;;;23.67;15.25;;;15.50;99.90;;;;;;5096287;28;20044;-60
2023/09/17 04:37:49;;;;;;;25.55;15.98;;;15.50;99.90;;;;;;5101647;28;20043;-60
2023/09/17 04:40:25;;;;;;;24.25;15.95;;;15.50;99.90;;;;;;5110637;28;20518;-60
2023/09/17 04:42:55;;;;;;;30.60;16.42;;;15.50;99.90;;;;;;5106136;28;20040;-61
2023/09/17 04:45:37;;;;;;;26.10;15.85;;;15.50;99.90;;;;;;5091434;28;20048;-60
2023/09/17 04:48:27;;;;;;;26.00;15.98;;;15.50;99.90;;;;;;5077674;28;20040;-61
2023/09/17 04:50:56;;;;;;;27.77;16.02;;;15.40;99.90;;;;;;5070252;28;20048;-60
2023/09/17 04:53:24;;;;;;;31.70;16.50;;;15.40;99.90;;;;;;5086236;28;20055;-60
2023/09/17 04:55:53;;;;;;;25.77;16.48;;;15.50;99.90;;;;;;5103861;28;20043;-60
2023/09/17 04:58:25;;;;;;;25.88;16.55;;;15.40;99.90;;;;;;5088197;28;20510;-61
2023/09/17 05:00:54;;;;;;;27.20;16.23;;;15.40;99.90;;;;;;5112619;28;20121;-60
2023/09/17 05:03:23;;;;;;;24.08;15.80;;;15.40;99.90;;;;;;5101745;27;20373;-61
2023/09/17 05:05:51;;;;;;;25.35;15.98;;;15.40;99.90;;;;;;5087326;28;20480;-60
2023/09/17 05:08:19;;;;;;;26.75;15.88;;;15.40;99.90;;;;;;5117291;27;20046;-60
2023/09/17 05:10:48;;;;;;;26.42;16.80;;;15.40;99.90;;;;;;5128139;27;20451;-61
2023/09/17 05:13:19;;;;;;;26.67;16.35;;;15.40;99.90;;;;;;5114517;27;20512;-60
2023/09/17 05:15:48;;;;;;;26.42;16.30;;;15.40;99.90;;;;;;5130576;27;20039;-61
2023/09/17 05:18:16;;;;;;;25.58;17.10;;;15.40;99.90;;;;;;5111957;27;20047;-61
2023/09/17 05:20:48;;;;;;;27.45;17.05;;;15.40;99.90;;;;;;5087059;28;20384;-61
2023/09/17 05:23:17;;;;;;;27.38;17.23;;;15.40;99.90;;;;;;5093389;28;20054;-60
2023/09/17 05:25:46;;;;;;;29.60;17.25;;;15.40;99.90;;;;;;5110615;28;20040;-60
2023/09/17 05:28:14;;;;;;;29.63;16.08;;;15.40;99.90;;;;;;5110362;28;20055;-60
2023/09/17 05:30:43;;;;;;;29.33;17.05;;;15.30;99.90;;;;;;5110011;28;20048;-60
2023/09/17 05:33:10;;;;;;;24.08;16.45;;;15.40;99.90;;;;;;5113308;27;20425;-61
2023/09/17 05:35:39;;;;;;;28.30;17.33;;;15.30;99.90;;;;;;5086529;28;20063;-60
2023/09/17 05:38:07;;;;;;;24.75;17.05;;;15.30;99.90;;;;;;5099689;28;20039;-60
2023/09/17 05:40:35;;;;;;;30.20;16.30;;;15.30;99.90;;;;;;5110749;28;20051;-60
2023/09/17 05:43:04;;;;;;;27.13;16.02;;;15.30;99.90;;;;;;5116245;27;20051;-60
2023/09/17 05:45:32;;;;;;;24.67;16.50;;;15.30;99.90;;;;;;5110661;28;20330;-60
2023/09/17 05:48:01;;;;;;;27.35;16.67;;;15.30;99.90;;;;;;5110296;28;20047;-60
2023/09/17 05:50:29;;;;;;;25.90;15.63;;;15.30;99.90;;;;;;5092899;28;20044;-61
2023/09/17 05:52:57;;;;;;;25.35;15.82;;;15.30;99.90;;;;;;5093263;28;20039;-61
2023/09/17 05:55:25;;;;;;;26.42;15.00;;;15.30;99.90;;;;;;5106261;27;20047;-60
2023/09/17 05:57:56;;;;;;;23.48;14.98;;;15.30;99.90;;;;;;5094796;28;20502;-61
2023/09/17 06:00:23;;;;;;;29.17;15.75;;;15.20;99.90;;;;;;5107710;28;20040;-61
2023/09/17 06:02:51;;;;;;;26.10;15.35;;;15.20;99.90;;;;;;5111629;27;20051;-60
2023/09/17 06:05:20;;;;;;;25.55;15.30;;;15.20;99.90;;;;;;5091299;28;20423;-60
2023/09/17 06:07:48;;;;;;;26.65;14.95;;;15.20;99.90;;;;;;5093162;28;20410;-60
2023/09/17 06:10:16;;;;;;;27.88;15.35;;;15.20;99.90;;;;;;5110880;28;20043;-61
2023/09/17 06:12:44;;;;;;;24.38;15.77;;;15.20;99.90;;;;;;5109700;28;20039;-60
2023/09/17 06:15:12;;;;;;;21.10;14.48;;;15.20;99.90;;;;;;5111132;28;20044;-60
2023/09/17 06:17:41;;;;;;;27.00;15.82;;;15.20;99.90;;;;;;5110184;27;20052;-61
2023/09/17 06:20:09;;;;;;;26.63;14.27;;;15.10;99.90;;;;;;5103071;27;20047;-60
2023/09/17 06:22:37;;;;;;;25.70;14.85;;;15.10;99.90;;;;;;5113908;27;20482;-60
2023/09/17 06:25:05;;;;;;;28.60;15.18;;;15.20;99.90;;;;;;5105618;28;20051;-60
2023/09/17 06:27:35;;;;;;;22.67;15.35;;;15.10;99.90;;;;;;5105811;28;20042;-60
2023/09/17 06:30:03;;;;;;;27.88;14.00;;;15.10;99.90;;;;;;5105888;28;20040;-60
2023/09/17 06:32:32;;;;;;;27.67;15.40;;;15.20;99.90;;;;;;5105806;28;20051;-61
2023/09/17 06:35:00;;;;;;;23.20;14.27;;;15.30;99.90;;;;;;5102464;28;20036;-60
2023/09/17 06:37:31;;;;;;;20.77;14.10;;;15.20;99.90;;;;;;5092199;27;20048;-61
2023/09/17 06:39:58;;;;;;;22.05;13.48;;;15.20;99.90;;;;;;5126900;27;20040;-60
2023/09/17 06:42:26;;;;;;;27.73;14.48;;;15.20;99.90;;;;;;5116269;27;20521;-60
2023/09/17 06:44:55;;;;;;;24.42;13.95;;;15.20;99.90;;;;;;5129906;27;20756;-60
2023/09/17 06:47:23;;;;;;;21.25;12.88;;;15.20;99.90;;;;;;5115298;27;20058;-60
2023/09/17 06:49:50;;;;;;;21.50;12.10;;;15.20;99.90;;;;;;5102297;28;20055;-61
2023/09/17 06:52:18;;;;;;;22.73;13.18;;;15.20;99.90;;;;;;5115235;27;20044;-60
2023/09/17 06:54:52;;;;;;;18.67;12.77;;;15.30;99.90;;;;;;5130870;27;20120;-60
2023/09/17 06:57:20;;;;;;;26.45;12.57;;;15.30;99.90;;;;;;5129228;27;20062;-60
2023/09/17 06:59:48;;;;;;;20.30;11.88;;;15.30;99.90;;;;;;5103609;28;20044;-61
2023/09/17 07:02:15;;;;;;;20.90;11.15;;;15.40;99.90;;;;;;5106332;28;20082;-61
2023/09/17 07:04:43;;;;;;;21.98;11.48;;;15.40;99.90;;;;;;5103609;27;20040;-60
2023/09/17 07:07:11;;;;;;;18.10;11.57;;;15.40;99.90;;;;;;5108306;28;20051;-61
2023/09/17 07:09:39;;;;;;;17.98;10.88;;;15.40;99.90;;;;;;5105398;28;20036;-61
2023/09/17 07:12:07;;;;;;;21.15;11.13;;;15.40;99.90;;;;;;5098678;28;20052;-61
2023/09/17 07:14:35;;;;;;;20.98;10.80;;;15.40;99.90;;;;;;5108157;28;20043;-60
2023/09/17 07:17:03;;;;;;;20.15;10.75;;;15.40;99.90;;;;;;5108484;28;20039;-60
2023/09/17 07:19:33;;;;;;;16.77;9.65;;;15.40;99.90;;;;;;5105054;28;20043;-60
2023/09/17 07:22:01;;;;;;;15.35;9.73;;;15.50;99.90;;;;;;5107251;28;20044;-60
2023/09/17 07:24:29;;;;;;;16.08;9.77;;;15.50;99.90;;;;;;5109570;28;20046;-61
2023/09/17 07:26:57;;;;;;;16.00;9.35;;;15.50;99.90;;;;;;5107840;28;20071;-60
2023/09/17 07:29:26;;;;;;;16.23;10.60;;;15.60;99.90;;;;;;5109215;28;20303;-61
2023/09/17 07:31:54;;;;;;;24.57;10.10;;;15.60;99.90;;;;;;5109661;28;20063;-60
2023/09/17 07:34:23;;;;;;;17.05;9.45;;;15.70;99.90;;;;;;5107226;27;20043;-60
2023/09/17 07:36:51;;;;;;;14.52;8.65;;;15.80;99.90;;;;;;5108475;28;20048;-61
2023/09/17 07:39:19;;;;;;;18.17;9.65;;;15.80;99.90;;;;;;5109369;28;20548;-60
2023/09/17 07:41:47;;;;;;;14.75;9.00;;;15.90;99.90;;;;;;5107999;28;20043;-61
2023/09/17 07:44:15;;;;;;;15.77;9.20;;;16.00;99.90;;;;;;5128452;27;20035;-61
2023/09/17 07:46:42;;;;;;;15.05;9.13;;;16.10;99.90;;;;;;5119754;27;20141;-60
2023/09/17 07:49:10;;;;;;;15.82;8.77;;;16.10;99.90;;;;;;5108901;27;20051;-60
2023/09/17 07:51:38;;;;;;;15.18;8.75;;;16.20;99.90;;;;;;5089554;27;20055;-60
2023/09/17 07:54:06;;;;;;;13.98;8.70;;;16.20;99.90;;;;;;5106963;28;20059;-60
2023/09/17 07:56:34;;;;;;;16.70;8.65;;;16.20;99.90;;;;;;5108239;28;20047;-60
2023/09/17 07:59:03;;;;;;;14.32;8.68;;;16.30;99.90;;;;;;5100612;28;20043;-60
2023/09/17 08:01:31;;;;;;;14.35;8.45;;;16.40;99.90;;;;;;5108820;28;20051;-60
2023/09/17 08:03:58;;;;;;;17.15;8.45;;;16.40;99.90;;;;;;5108511;28;20043;-60
2023/09/17 08:06:27;;;;;;;11.93;7.85;;;16.40;99.90;;;;;;5091783;28;20043;-61
2023/09/17 08:08:55;;;;;;;14.57;7.60;;;16.40;99.90;;;;;;5108272;28;20479;-61
2023/09/17 08:11:27;;;;;;;18.45;7.65;;;16.40;99.90;;;;;;5098623;28;20077;-61
2023/09/17 08:13:58;;;;;;;16.60;7.60;;;16.40;99.90;;;;;;5118846;27;20047;-60
2023/09/17 08:16:26;;;;;;;13.37;7.03;;;16.50;99.90;;;;;;5128916;27;20043;-60
2023/09/17 08:18:54;;;;;;;13.15;7.47;;;16.50;99.90;;;;;;5099810;27;20047;-61
2023/09/17 08:21:23;;;;;;;10.10;7.03;;;16.60;99.90;;;;;;5088838;27;20059;-61
2023/09/17 08:24:03;;;;;;;12.75;7.65;;;16.60;99.90;;;;;;5119461;27;20051;-60
2023/09/17 08:26:52;;;;;;;15.32;8.02;;;16.60;99.90;;;;;;5128591;27;20391;-60
2023/09/17 08:29:37;;;;;;;13.05;7.20;;;16.60;99.90;;;;;;5109945;27;20361;-61
2023/09/17 08:32:25;;;;;;;11.98;7.50;;;16.60;99.90;;;;;;5107596;28;20072;-60
2023/09/17 08:35:16;;;;;;;12.68;7.18;;;16.60;99.90;;;;;;5100937;28;20411;-60
2023/09/17 08:37:44;;;;;;;17.25;8.00;;;16.60;99.90;;;;;;5098002;28;20040;-61
2023/09/17 08:40:14;;;;;;;10.57;6.63;;;16.60;99.90;;;;;;5108729;28;20048;-61
2023/09/17 08:42:42;;;;;;;9.32;6.72;;;16.60;99.90;;;;;;5108907;28;20067;-60
2023/09/17 08:45:11;;;;;;;14.55;7.47;;;16.60;99.90;;;;;;5128780;27;20082;-61
2023/09/17 08:47:39;;;;;;;15.55;7.53;;;16.60;99.90;;;;;;5110719;28;20050;-60
2023/09/17 08:50:11;;;;;;;13.80;6.68;;;16.70;99.90;;;;;;5096092;28;20043;-61
2023/09/17 08:52:45;;;;;;;13.77;7.07;;;16.80;99.90;;;;;;5090072;28;20069;-60
2023/09/17 08:55:17;;;;;;;10.68;6.78;;;16.90;99.90;;;;;;5108310;28;20043;-60
2023/09/17 08:57:52;;;;;;;12.48;6.68;;;17.00;99.90;;;;;;5107953;28;20513;-61
2023/09/17 09:00:22;;;;;;;9.15;5.78;;;17.10;99.90;;;;;;5099378;28;20040;-60
2023/09/17 09:02:54;;;;;;;9.88;5.82;;;17.20;99.90;;;;;;5087477;28;20322;-60
2023/09/17 09:05:25;;;;;;;11.05;5.70;;;17.20;99.90;;;;;;5104179;28;20044;-61
2023/09/17 09:07:56;;;;;;;13.52;6.72;;;17.30;99.90;;;;;;5099031;28;20402;-60
2023/09/17 09:10:24;;;;;;;10.95;6.35;;;17.40;99.90;;;;;;5107556;28;20039;-60
2023/09/17 09:12:52;;;;;;;12.73;5.68;;;17.40;99.90;;;;;;5099168;28;20052;-64
2023/09/17 09:15:21;;;;;;;11.90;6.43;;;17.40;99.90;;;;;;5099228;28;20409;-60
2023/09/17 09:17:48;;;;;;;8.38;5.28;;;17.50;99.90;;;;;;5103109;28;20383;-60
2023/09/17 09:20:19;;;;;;;13.02;6.03;;;17.50;99.90;;;;;;5105667;28;20046;-60
2023/09/17 09:22:47;;;;;;;8.68;5.45;;;17.60;99.90;;;;;;5094283;28;20047;-61
2023/09/17 09:25:16;;;;;;;10.43;5.57;;;17.60;99.90;;;;;;5106791;28;20044;-61
2023/09/17 09:27:44;;;;;;;9.27;5.68;;;17.70;99.90;;;;;;5103943;28;20474;-61
2023/09/17 09:30:16;;;;;;;9.82;5.65;;;17.70;99.90;;;;;;5097481;28;20051;-61
2023/09/17 09:32:45;;;;;;;11.70;5.18;;;17.70;99.90;;;;;;5095754;28;20056;-60
2023/09/17 09:35:14;;;;;;;9.60;5.38;;;17.80;99.90;;;;;;5098051;28;20048;-61
2023/09/17 09:37:42;;;;;;;6.63;5.22;;;17.70;99.90;;;;;;5096958;28;20054;-60
2023/09/17 09:40:11;;;;;;;10.40;5.40;;;17.80;99.90;;;;;;5108052;28;20394;-61
2023/09/17 09:42:39;;;;;;;11.90;5.97;;;17.70;99.90;;;;;;5110684;28;20047;-60
2023/09/17 09:45:16;;;;;;;8.40;5.47;;;17.70;99.90;;;;;;5111705;28;20043;-61
2023/09/17 09:47:48;;;;;;;8.50;4.93;;;17.80;99.90;;;;;;5110356;28;20062;-60
2023/09/17 09:50:35;;;;;;;9.13;5.28;;;17.80;99.90;;;;;;5110836;28;20052;-61
2023/09/17 09:53:03;;;;;;;9.48;5.40;;;17.80;99.90;;;;;;5100694;27;20035;-60
2023/09/17 09:55:30;;;;;;;13.25;5.05;;;17.80;99.90;;;;;;5095775;28;20040;-61
2023/09/17 09:57:59;;;;;;;11.48;6.00;;;17.90;99.90;;;;;;5099822;28;20039;-61
2023/09/17 10:00:29;;;;;;;11.10;5.75;;;17.90;99.90;;;;;;5100358;28;20048;-60
2023/09/17 10:02:57;;;;;;;11.65;5.45;;;18.00;99.90;;;;;;5114984;27;20117;-60
2023/09/17 10:05:33;;;;;;;10.80;5.20;;;18.10;99.90;;;;;;5094275;28;20044;-61
2023/09/17 10:08:04;;;;;;;9.45;4.43;;;18.10;99.90;;;;;;5100975;28;20058;-61
2023/09/17 10:10:32;;;;;;;9.48;4.95;;;18.20;99.90;;;;;;5108772;28;20048;-60
2023/09/17 10:13:04;;;;;;;10.52;5.03;;;18.30;99.90;;;;;;5107991;27;20048;-60
2023/09/17 10:15:36;;;;;;;11.32;5.03;;;18.40;99.90;;;;;;5105282;28;20040;-60
2023/09/17 10:18:05;;;;;;;14.73;5.45;;;18.40;99.90;;;;;;5099118;28;20040;-60
2023/09/17 10:20:34;;;;;;;7.63;4.97;;;18.40;99.90;;;;;;5095162;28;20044;-61
2023/09/17 10:23:03;;;;;;;11.77;5.23;;;18.50;99.90;;;;;;5099575;28;20066;-61
2023/09/17 10:25:33;;;;;;;12.68;4.78;;;18.40;99.90;;;;;;5094954;28;20490;-61
2023/09/17 10:28:03;;;;;;;9.95;5.28;;;18.40;99.90;;;;;;5115456;27;20236;-60
2023/09/17 10:30:32;;;;;;;10.73;5.15;;;18.40;99.90;;;;;;5097483;27;20047;-60
2023/09/17 10:33:03;;;;;;;7.65;4.57;;;18.40;99.90;;;;;;5101079;27;20043;-61
2023/09/17 10:35:32;;;;;;;8.55;5.25;;;18.50;99.90;;;;;;5088305;28;20046;-60
2023/09/17 10:38:03;;;;;;;;;;;18.50;99.90;;;;;;5104638;27;20043;-60
2023/09/17 10:40:31;;;;;;;;;;;18.60;99.90;;;;;;5128431;27;20260;-61
2023/09/17 10:43:01;;;;;;;7.45;4.78;;;18.70;99.90;;;;;;5110786;27;19934;-60
2023/09/17 10:45:33;;;;;;;10.30;4.95;;;18.70;99.90;;;;;;5087782;28;20562;-60
2023/09/17 10:48:02;;;;;;;8.18;5.07;;;18.80;99.90;;;;;;5093189;27;20055;-60
2023/09/17 10:50:34;;;;;;;10.20;5.47;;;18.80;99.90;;;;;;5104137;28;20051;-61
2023/09/17 10:53:03;;;;;;;13.80;7.25;;;18.90;99.90;;;;;;5095093;27;20051;-60
2023/09/17 10:55:38;;;;;;;13.48;7.40;;;18.90;99.90;;;;;;5106495;28;20380;-61
2023/09/17 10:58:14;;;;;;;12.35;6.30;;;18.90;99.90;;;;;;5105375;28;20055;-61
2023/09/17 11:00:43;;;;;;;8.30;5.50;;;18.90;99.90;;;;;;5106756;28;20047;-60
2023/09/17 11:03:17;;;;;;;10.27;5.25;;;18.90;99.90;;;;;;5113168;27;20519;-60
2023/09/17 11:05:47;;;;;;;8.88;5.82;;;18.90;99.90;;;;;;5099509;27;20506;-61
2023/09/17 11:08:15;;;;;;;10.05;6.05;;;18.90;99.90;;;;;;5095713;28;20396;-60
2023/09/17 11:10:43;;;;;;;21.98;6.43;;;19.00;99.90;;;;;;5087014;27;20042;-60
2023/09/17 11:13:14;;;;;;;10.15;6.45;;;19.00;99.90;;;;;;5100927;27;20055;-60
2023/09/17 11:15:42;;;;;;;11.27;6.18;;;19.10;99.90;;;;;;5096571;27;20395;-61
2023/09/17 11:18:11;;;;;;;9.82;5.95;;;19.10;99.90;;;;;;5097024;28;20051;-61
2023/09/17 11:21:06;;;;;;;9.48;5.95;;;19.10;99.90;;;;;;5093732;27;20039;-60
2023/09/17 11:23:47;;;;;;;12.15;5.50;;;19.20;99.90;;;;;;5101051;27;20056;-60
2023/09/17 11:26:20;;;;;;;11.18;6.78;;;19.30;99.90;;;;;;5085698;28;20430;-61
2023/09/17 11:28:58;;;;;;;12.80;7.05;;;19.40;99.90;;;;;;5094432;27;20051;-60
2023/09/17 11:31:29;;;;;;;11.25;6.22;;;19.40;99.90;;;;;;5104772;28;20054;-60
2023/09/17 11:33:58;;;;;;;12.35;6.40;;;19.40;99.90;;;;;;5101378;28;20047;-60
2023/09/17 11:36:26;;;;;;;11.20;6.38;;;19.40;99.90;;;;;;5101390;28;20040;-60
2023/09/17 11:38:56;;;;;;;9.88;6.18;;;19.40;99.90;;;;;;5105221;28;20434;-60
2023/09/17 11:41:30;;;;;;;8.80;5.72;;;19.40;99.90;;;;;;5106333;28;20050;-60
2023/09/17 11:44:03;;;;;;;8.40;5.95;;;19.40;99.90;;;;;;5100446;27;20357;-61
2023/09/17 11:46:34;;;;;;;11.20;6.63;;;19.40;99.90;;;;;;5085458;28;20043;-60
2023/09/17 11:49:02;;;;;;;;;;;19.50;99.90;;;;;;5101541;28;20298;-60
2023/09/17 11:51:32;;;;;;;11.77;6.45;;;19.50;99.90;;;;;;5106261;28;19923;-60
2023/09/17 11:54:02;;;;;;;10.80;6.85;;;19.50;99.90;;;;;;5111368;27;20479;-60
2023/09/17 11:56:34;;;;;;;;;;;19.50;99.90;;;;;;5106711;28;20040;-60
2023/09/17 11:59:15;;;;;;;11.77;6.68;;;19.50;99.90;;;;;;5100694;27;19994;-60
2023/09/17 12:01:47;;;;;;;10.85;7.10;;;19.50;99.90;;;;;;5086112;28;20043;-60
2023/09/17 12:04:17;;;;;;;15.07;6.82;;;19.40;99.90;;;;;;5104460;28;20052;-60
2023/09/17 12:06:47;;;;;;;9.73;6.33;;;19.40;99.90;;;;;;5105709;28;20040;-60
2023/09/17 12:09:21;;;;;;;12.27;6.93;;;19.50;99.90;;;;;;5106799;27;20291;-60
2023/09/17 12:11:50;;;;;;;13.80;6.32;;;19.50;99.90;;;;;;5089534;28;20044;-60
2023/09/17 12:14:19;;;;;;;11.73;6.93;;;19.50;99.90;;;;;;5096215;27;20507;-60
2023/09/17 12:16:49;;;;;;;15.70;6.80;;;19.50;99.90;;;;;;5085163;28;20498;-60
2023/09/17 12:19:18;;;;;;;15.18;7.10;;;19.50;99.90;;;;;;5095978;27;20062;-60
2023/09/17 12:21:48;;;;;;;10.80;7.10;;;19.50;99.90;;;;;;5097507;28;20039;-60
2023/09/17 12:24:26;;;;;;;13.00;7.32;;;19.40;99.90;;;;;;5094846;27;20044;-60
2023/09/17 12:29:43;;;;;;;12.15;6.50;;;19.40;99.90;;;;;;5108996;27;20212;-60
2023/09/17 12:32:14;;;;;;;;;;;19.40;99.90;;;;;;5098728;28;20055;-60
2023/09/17 12:34:42;;;;;;;14.45;6.93;;;19.50;99.90;;;;;;5101269;27;19931;-60
2023/09/17 12:37:11;;;;;;;13.82;7.55;;;19.60;99.90;;;;;;5087606;27;20058;-60
2023/09/17 12:39:42;;;;;;;8.82;6.60;;;19.60;99.90;;;;;;5099072;27;20040;-60
2023/09/17 12:42:10;;;;;;;9.23;6.80;;;19.80;99.90;;;;;;5095502;28;20487;-60
2023/09/17 12:44:38;;;;;;;11.68;6.45;;;19.90;99.90;;;;;;5100256;28;20043;-60
2023/09/17 12:47:07;;;;;;;9.73;6.63;;;20.20;99.90;;;;;;5094269;28;20059;-59
2023/09/17 12:49:35;;;;;;;13.65;7.55;;;20.50;99.90;;;;;;5107325;28;20055;-60